Time;durP1;ratioP1;P1;durP2;ratioP2;P2;SDS_P1;SDS_P2;PMS_P1;PMS_P2;Temp;Humidity;BMP_temperature;BMP_pressure;BME280_temperature;BME280_humidity;BME280_pressure;Samples;Min_cycle;Max_cycle;Signal;HPM_P1;HPM_P2
2021/10/26 00:01:44;;;;;;;9.57;7.53;;;;;;;;;;5094711;28;20047;-75
2021/10/26 00:04:10;;;;;;;13.65;7.97;;;;;;;;;;5095152;28;20065;-76
2021/10/26 00:06:36;;;;;;;15.25;7.30;;;;;;;;;;5094404;28;20028;-76
2021/10/26 00:09:03;;;;;;;11.38;8.13;;;;;;;;;;5093874;28;20035;-76
2021/10/26 00:11:29;;;;;;;11.18;7.43;;;;;;;;;;5094904;28;20122;-76
2021/10/26 00:13:55;;;;;;;9.73;6.85;;;;;;;;;;5094606;28;20110;-76
2021/10/26 00:16:20;;;;;;;15.48;8.23;;;;;;;;;;5094950;28;20027;-76
2021/10/26 00:18:45;;;;;;;18.98;7.05;;;;;;;;;;5092884;28;20038;-76
2021/10/26 00:21:11;;;;;;;10.77;7.13;;;;;;;;;;5094164;28;20044;-76
2021/10/26 00:23:36;;;;;;;12.50;7.63;;;;;;;;;;5093057;28;20036;-76
2021/10/26 00:26:04;;;;;;;11.35;7.78;;;;;;;;;;5094500;28;20039;-76
2021/10/26 00:28:33;;;;;;;10.95;7.63;;;;;;;;;;5093004;28;20044;-76
2021/10/26 00:30:59;;;;;;;10.75;6.88;;;;;;;;;;5094067;28;20044;-76
2021/10/26 00:33:24;;;;;;;11.95;7.60;;;;;;;;;;5093088;28;20036;-76
2021/10/26 00:35:51;;;;;;;12.50;7.35;;;;;;;;;;5094346;28;20028;-76
2021/10/26 00:38:20;;;;;;;11.23;6.88;;;;;;;;;;5093092;28;20031;-76
2021/10/26 00:40:46;;;;;;;9.98;7.30;;;;;;;;;;5094151;28;20404;-76
2021/10/26 00:43:12;;;;;;;15.20;8.35;;;;;;;;;;5094157;28;20516;-76
2021/10/26 00:45:38;;;;;;;11.68;7.78;;;;;;;;;;5092858;28;20040;-76
2021/10/26 00:48:04;;;;;;;10.13;6.93;;;;;;;;;;5093023;28;20031;-76
2021/10/26 00:50:30;;;;;;;12.65;7.85;;;;;;;;;;5092441;28;20032;-76
2021/10/26 00:52:56;;;;;;;10.48;7.50;;;;;;;;;;5092664;28;20162;-76
2021/10/26 00:55:21;;;;;;;10.80;7.30;;;;;;;;;;5092576;28;20028;-76
2021/10/26 00:57:47;;;;;;;9.43;6.72;;;;;;;;;;5092583;28;20481;-76
2021/10/26 01:00:14;;;;;;;13.23;7.38;;;;;;;;;;5093915;28;20036;-76
2021/10/26 01:02:43;;;;;;;14.02;6.75;;;;;;;;;;5094061;28;20039;-75
2021/10/26 01:05:14;;;;;;;12.77;6.65;;;;;;;;;;5092558;28;20389;-76
2021/10/26 01:07:41;;;;;;;11.35;6.72;;;;;;;;;;5093531;28;20028;-76
2021/10/26 01:10:08;;;;;;;9.57;6.45;;;;;;;;;;5092296;28;20028;-76
2021/10/26 01:12:37;;;;;;;10.93;6.47;;;;;;;;;;5092220;28;20351;-76
2021/10/26 01:15:05;;;;;;;12.48;7.55;;;;;;;;;;5093906;28;20392;-76
2021/10/26 01:17:31;;;;;;;12.63;6.75;;;;;;;;;;5092574;28;20090;-76
2021/10/26 01:19:57;;;;;;;12.20;6.07;;;;;;;;;;5092156;28;20489;-76
2021/10/26 01:22:27;;;;;;;15.75;6.88;;;;;;;;;;5075256;28;20031;-76
2021/10/26 01:24:53;;;;;;;8.55;6.28;;;;;;;;;;5093323;28;20028;-76
2021/10/26 01:27:20;;;;;;;13.52;6.38;;;;;;;;;;5091748;28;20123;-76
2021/10/26 01:29:49;;;;;;;14.18;7.20;;;;;;;;;;5092046;28;20546;-75
2021/10/26 01:32:16;;;;;;;18.45;7.28;;;;;;;;;;5091908;28;20119;-76
2021/10/26 01:34:46;;;;;;;15.50;7.03;;;;;;;;;;5092427;28;20123;-76
2021/10/26 01:37:12;;;;;;;8.82;5.82;;;;;;;;;;5091981;28;20442;-76
2021/10/26 01:39:39;;;;;;;8.93;5.82;;;;;;;;;;5091256;28;20076;-76
2021/10/26 01:42:07;;;;;;;9.65;5.97;;;;;;;;;;5091969;28;20051;-76
2021/10/26 01:44:33;;;;;;;11.57;6.93;;;;;;;;;;5093308;28;20028;-76
2021/10/26 01:47:17;;;;;;;12.50;6.63;;;;;;;;;;5091886;28;20034;-75
2021/10/26 01:49:43;;;;;;;12.23;7.32;;;;;;;;;;5092018;28;20028;-76
2021/10/26 01:52:10;;;;;;;14.27;6.97;;;;;;;;;;5091401;28;20032;-76
2021/10/26 01:54:37;;;;;;;11.27;8.05;;;;;;;;;;5091838;28;20067;-76
2021/10/26 01:57:05;;;;;;;12.93;7.22;;;;;;;;;;5092117;28;20047;-76
2021/10/26 01:59:43;;;;;;;15.68;8.35;;;;;;;;;;5091817;28;20111;-75
2021/10/26 02:02:09;;;;;;;12.45;8.25;;;;;;;;;;5091727;28;20031;-76
2021/10/26 02:04:34;;;;;;;15.32;8.93;;;;;;;;;;5091814;28;20432;-76
2021/10/26 02:07:01;;;;;;;11.07;8.40;;;;;;;;;;5091689;28;20036;-76
2021/10/26 02:09:30;;;;;;;12.77;7.47;;;;;;;;;;5091391;28;20040;-76
2021/10/26 02:11:56;;;;;;;18.58;9.32;;;;;;;;;;5091727;28;20039;-76
2021/10/26 02:14:22;;;;;;;13.38;9.57;;;;;;;;;;5075030;28;20118;-76
2021/10/26 02:16:47;;;;;;;12.18;7.55;;;;;;;;;;5091653;28;20089;-75
2021/10/26 02:19:13;;;;;;;14.35;8.73;;;;;;;;;;5091719;28;20023;-76
2021/10/26 02:21:40;;;;;;;17.33;10.93;;;;;;;;;;5093146;28;20042;-76
2021/10/26 02:24:06;;;;;;;18.60;8.55;;;;;;;;;;5090506;28;20449;-76
2021/10/26 02:26:34;;;;;;;14.48;7.57;;;;;;;;;;5091586;28;20032;-76
2021/10/26 02:29:01;;;;;;;11.25;7.53;;;;;;;;;;5091636;28;20569;-76
2021/10/26 02:31:26;;;;;;;14.45;8.27;;;;;;;;;;5091470;28;20118;-76
2021/10/26 02:33:52;;;;;;;13.43;8.18;;;;;;;;;;5091609;28;20044;-76
2021/10/26 02:36:18;;;;;;;12.70;7.93;;;;;;;;;;5092960;28;20032;-76
2021/10/26 02:38:44;;;;;;;16.45;8.02;;;;;;;;;;5091073;28;20023;-76
2021/10/26 02:41:11;;;;;;;12.77;8.05;;;;;;;;;;5091231;28;20397;-76
2021/10/26 02:43:37;;;;;;;14.18;7.10;;;;;;;;;;5091573;28;20036;-76
2021/10/26 02:46:03;;;;;;;12.50;7.35;;;;;;;;;;5091374;28;20028;-76
2021/10/26 02:48:29;;;;;;;10.70;7.30;;;;;;;;;;5091246;28;20033;-76
2021/10/26 02:50:56;;;;;;;12.65;7.95;;;;;;;;;;5091393;28;20040;-76
2021/10/26 02:53:23;;;;;;;12.02;7.50;;;;;;;;;;5093778;28;20035;-76
2021/10/26 02:55:50;;;;;;;11.13;8.00;;;;;;;;;;5094050;28;20032;-76
2021/10/26 02:58:17;;;;;;;19.27;8.88;;;;;;;;;;5095003;28;20111;-76
2021/10/26 03:00:43;;;;;;;13.05;8.05;;;;;;;;;;5096154;28;20036;-76
2021/10/26 03:03:10;;;;;;;12.10;8.38;;;;;;;;;;5093707;28;20514;-76
2021/10/26 03:05:36;;;;;;;12.75;8.27;;;;;;;;;;5094938;28;20058;-76
2021/10/26 03:08:01;;;;;;;10.80;7.90;;;;;;;;;;5095766;28;20036;-76
2021/10/26 03:10:27;;;;;;;17.35;8.43;;;;;;;;;;5094788;28;20093;-76
2021/10/26 03:12:53;;;;;;;13.25;8.63;;;;;;;;;;5094668;28;20508;-76
2021/10/26 03:15:19;;;;;;;13.48;8.02;;;;;;;;;;5095833;28;20040;-76
2021/10/26 03:17:45;;;;;;;9.27;7.70;;;;;;;;;;5095177;28;20122;-76
2021/10/26 03:20:16;;;;;;;14.25;8.15;;;;;;;;;;5094416;28;20500;-76
2021/10/26 03:22:44;;;;;;;9.93;7.60;;;;;;;;;;5093273;28;20086;-76
2021/10/26 03:25:09;;;;;;;14.05;8.23;;;;;;;;;;5094550;28;20031;-76
2021/10/26 03:27:36;;;;;;;10.18;7.88;;;;;;;;;;5094126;28;20085;-76
2021/10/26 03:30:06;;;;;;;13.25;7.65;;;;;;;;;;5077540;28;20032;-76
2021/10/26 03:32:32;;;;;;;11.30;7.40;;;;;;;;;;5094303;28;20035;-76
2021/10/26 03:35:30;;;;;;;9.63;7.22;;;;;;;;;;5072327;28;20591;-76
2021/10/26 03:37:56;;;;;;;9.38;7.22;;;;;;;;;;5093540;28;20123;-76
2021/10/26 03:40:21;;;;;;;15.02;7.70;;;;;;;;;;5095385;28;20139;-76
2021/10/26 03:42:46;;;;;;;11.30;7.43;;;;;;;;;;5092822;28;20089;-75
2021/10/26 03:45:12;;;;;;;12.48;7.63;;;;;;;;;;5093930;28;20401;-75
2021/10/26 03:47:45;;;;;;;9.63;7.32;;;;;;;;;;5094765;28;20517;-76
2021/10/26 03:50:12;;;;;;;13.65;7.47;;;;;;;;;;5095355;28;20032;-76
2021/10/26 03:52:38;;;;;;;12.27;7.57;;;;;;;;;;5093259;28;20046;-76
2021/10/26 03:55:05;;;;;;;13.07;7.38;;;;;;;;;;5093106;28;20032;-76
2021/10/26 03:57:31;;;;;;;14.63;7.90;;;;;;;;;;5093604;28;20460;-76
2021/10/26 03:59:58;;;;;;;11.60;8.18;;;;;;;;;;5093678;28;20093;-76
2021/10/26 04:02:27;;;;;;;13.48;7.82;;;;;;;;;;5092590;28;20024;-76
2021/10/26 04:04:56;;;;;;;13.13;7.68;;;;;;;;;;5094673;28;20523;-76
2021/10/26 04:07:22;;;;;;;12.25;8.00;;;;;;;;;;5093369;28;20075;-76
2021/10/26 04:09:51;;;;;;;14.60;8.52;;;;;;;;;;5094744;28;20042;-76
2021/10/26 04:12:24;;;;;;;14.20;8.52;;;;;;;;;;5093491;28;20431;-76
2021/10/26 04:14:53;;;;;;;13.23;7.18;;;;;;;;;;5094666;28;20034;-76
2021/10/26 04:17:19;;;;;;;11.77;7.45;;;;;;;;;;5093307;28;20088;-76
2021/10/26 04:19:46;;;;;;;8.02;6.93;;;;;;;;;;5093160;28;20122;-76
2021/10/26 04:22:12;;;;;;;13.93;8.38;;;;;;;;;;5092964;28;20028;-74
2021/10/26 04:24:39;;;;;;;11.45;7.50;;;;;;;;;;5092283;28;20028;-74
2021/10/26 04:27:04;;;;;;;11.65;8.05;;;;;;;;;;5093304;28;20036;-74
2021/10/26 04:29:30;;;;;;;15.27;7.78;;;;;;;;;;5093240;28;20043;-74
2021/10/26 04:31:55;;;;;;;17.40;8.07;;;;;;;;;;5093070;28;20032;-74
2021/10/26 04:34:25;;;;;;;13.60;8.00;;;;;;;;;;5092775;28;20039;-74
2021/10/26 04:36:50;;;;;;;11.55;7.80;;;;;;;;;;5093250;28;20366;-74
2021/10/26 04:39:16;;;;;;;12.52;7.55;;;;;;;;;;5092626;28;20482;-74
2021/10/26 04:41:42;;;;;;;12.35;7.60;;;;;;;;;;5092824;28;20048;-74
2021/10/26 04:44:07;;;;;;;13.60;8.02;;;;;;;;;;5092460;28;20500;-74
2021/10/26 04:46:33;;;;;;;16.20;7.50;;;;;;;;;;5092922;28;20085;-74
2021/10/26 04:49:00;;;;;;;11.45;7.65;;;;;;;;;;5092819;28;20040;-74
2021/10/26 04:51:28;;;;;;;11.27;7.28;;;;;;;;;;5092763;28;20040;-74
2021/10/26 04:53:53;;;;;;;10.45;6.13;;;;;;;;;;5091485;28;20058;-74
2021/10/26 04:56:19;;;;;;;12.20;7.60;;;;;;;;;;5092793;28;20032;-74
2021/10/26 04:59:03;;;;;;;12.07;7.60;;;;;;;;;;5092988;28;20492;-74
2021/10/26 05:01:29;;;;;;;13.43;8.02;;;;;;;;;;5092786;28;20036;-74
2021/10/26 05:03:55;;;;;;;16.42;9.68;;;;;;;;;;5091195;28;20039;-74
2021/10/26 05:06:21;;;;;;;15.73;11.10;;;;;;;;;;5092522;28;20082;-74
2021/10/26 05:08:52;;;;;;;15.18;10.50;;;;;;;;;;5093540;28;20488;-74
2021/10/26 05:11:20;;;;;;;17.23;9.85;;;;;;;;;;5092326;28;20590;-74
2021/10/26 05:13:46;;;;;;;17.13;10.23;;;;;;;;;;5092314;28;20032;-74
2021/10/26 05:16:30;;;;;;;16.65;10.07;;;;;;;;;;5093148;28;20055;-74
2021/10/26 05:19:15;;;;;;;19.70;11.18;;;;;;;;;;5093389;28;20097;-74
2021/10/26 05:22:12;;;;;;;14.38;9.82;;;;;;;;;;5093706;28;20036;-74
2021/10/26 05:24:56;;;;;;;13.07;8.35;;;;;;;;;;5073138;28;20496;-74
2021/10/26 05:27:37;;;;;;;14.07;9.65;;;;;;;;;;5072065;28;20032;-74
2021/10/26 05:30:05;;;;;;;15.82;10.93;;;;;;;;;;5071751;28;20032;-74
2021/10/26 05:32:31;;;;;;;18.92;10.32;;;;;;;;;;5071888;28;20048;-74
2021/10/26 05:34:57;;;;;;;16.40;10.63;;;;;;;;;;5055591;28;20477;-74
2021/10/26 05:37:22;;;;;;;20.00;11.27;;;;;;;;;;5072019;28;20025;-74
2021/10/26 05:39:48;;;;;;;14.20;10.23;;;;;;;;;;5072615;28;20068;-74
2021/10/26 05:42:13;;;;;;;20.52;10.38;;;;;;;;;;5079455;28;20035;-74
2021/10/26 05:44:38;;;;;;;17.23;10.43;;;;;;;;;;5092992;28;20384;-74
2021/10/26 05:47:04;;;;;;;17.05;10.82;;;;;;;;;;5093127;28;20410;-73
2021/10/26 05:49:30;;;;;;;15.52;10.80;;;;;;;;;;5093046;28;20027;-74
2021/10/26 05:51:56;;;;;;;12.70;9.32;;;;;;;;;;5091451;28;20512;-74
2021/10/26 05:54:22;;;;;;;12.65;9.50;;;;;;;;;;5091456;28;20459;-74
2021/10/26 05:56:48;;;;;;;16.35;10.07;;;;;;;;;;5091969;28;20040;-74
2021/10/26 05:59:13;;;;;;;13.15;9.27;;;;;;;;;;5074600;28;20373;-74
2021/10/26 06:01:40;;;;;;;15.35;9.85;;;;;;;;;;5091847;28;20115;-74
2021/10/26 06:04:06;;;;;;;16.15;10.10;;;;;;;;;;5091999;28;20040;-74
2021/10/26 06:06:35;;;;;;;14.40;8.82;;;;;;;;;;5091550;28;20035;-74
2021/10/26 06:09:00;;;;;;;15.75;9.85;;;;;;;;;;5092882;28;20481;-74
2021/10/26 06:11:27;;;;;;;15.45;11.18;;;;;;;;;;5091903;28;20082;-75
2021/10/26 06:14:03;;;;;;;15.32;10.05;;;;;;;;;;5091759;28;20074;-74
2021/10/26 06:16:31;;;;;;;14.27;9.73;;;;;;;;;;5091906;28;20032;-74
2021/10/26 06:18:57;;;;;;;14.82;10.38;;;;;;;;;;5091811;28;20093;-74
2021/10/26 06:21:22;;;;;;;15.07;10.05;;;;;;;;;;5091751;28;20109;-74
2021/10/26 06:23:48;;;;;;;11.73;9.07;;;;;;;;;;5091536;28;20039;-74
2021/10/26 06:26:13;;;;;;;11.48;8.27;;;;;;;;;;5093074;28;20051;-74
2021/10/26 06:28:42;;;;;;;14.02;8.73;;;;;;;;;;5094992;28;20055;-74
2021/10/26 06:31:07;;;;;;;18.55;8.20;;;;;;;;;;5095470;28;20434;-74
2021/10/26 06:33:40;;;;;;;12.02;8.23;;;;;;;;;;5095428;28;20437;-74
2021/10/26 06:36:27;;;;;;;12.10;8.10;;;;;;;;;;5081530;28;20063;-74
2021/10/26 06:38:54;;;;;;;11.70;8.30;;;;;;;;;;5096833;28;20028;-74
2021/10/26 06:41:20;;;;;;;14.45;7.72;;;;;;;;;;5095255;28;20498;-77
2021/10/26 06:43:52;;;;;;;17.60;9.07;;;;;;;;;;5095495;28;20032;-77
2021/10/26 06:46:36;;;;;;;17.02;8.38;;;;;;;;;;5096522;28;20082;-76
2021/10/26 06:49:30;;;;;;;14.95;8.02;;;;;;;;;;5076685;28;20040;-74
2021/10/26 06:52:15;;;;;;;22.27;10.02;;;;;;;;;;5096032;28;20082;-74
2021/10/26 06:55:18;;;;;;;25.05;12.35;;;;;;;;;;5072790;28;20032;-75
2021/10/26 06:58:19;;;;;;;18.67;12.20;;;;;;;;;;5095857;28;20040;-75
2021/10/26 07:01:17;;;;;;;17.00;11.70;;;;;;;;;;5072952;28;20039;-75
2021/10/26 07:03:52;;;;;;;19.42;13.10;;;;;;;;;;5094788;28;20423;-75
2021/10/26 07:06:37;;;;;;;19.67;13.02;;;;;;;;;;5095074;28;20481;-76
2021/10/26 07:09:20;;;;;;;16.60;11.45;;;;;;;;;;5095745;28;20480;-76
2021/10/26 07:11:58;;;;;;;20.92;13.30;;;;;;;;;;5087062;28;20547;-76
2021/10/26 07:14:24;;;;;;;15.80;12.27;;;;;;;;;;5075804;28;20036;-76
2021/10/26 07:16:50;;;;;;;20.13;11.35;;;;;;;;;;5079049;28;20031;-76
2021/10/26 07:19:17;;;;;;;20.17;12.10;;;;;;;;;;5094510;28;20090;-76
2021/10/26 07:22:01;;;;;;;16.67;10.90;;;;;;;;;;5095576;28;20181;-76
2021/10/26 07:24:45;;;;;;;16.83;11.57;;;;;;;;;;5095645;28;20131;-76
2021/10/26 07:27:14;;;;;;;19.90;11.68;;;;;;;;;;5094265;28;20028;-73
2021/10/26 07:29:41;;;;;;;20.33;12.02;;;;;;;;;;5094161;28;20024;-73
2021/10/26 07:32:07;;;;;;;23.20;13.20;;;;;;;;;;5094203;28;20117;-74
2021/10/26 07:34:33;;;;;;;25.15;13.70;;;;;;;;;;5094322;28;20066;-76
2021/10/26 07:36:59;;;;;;;25.08;13.77;;;;;;;;;;5094537;28;20024;-77
2021/10/26 07:41:51;;;;;;;26.25;16.15;;;;;;;;;;5095071;28;20387;-76
2021/10/26 07:44:35;;;;;;;24.83;15.43;;;;;;;;;;5095375;28;20075;-76
2021/10/26 07:47:03;;;;;;;22.50;14.82;;;;;;;;;;5094014;28;20028;-76
2021/10/26 07:49:30;;;;;;;26.25;15.18;;;;;;;;;;5093962;28;20375;-75
2021/10/26 07:51:57;;;;;;;16.95;11.35;;;;;;;;;;5094124;28;20074;-76
2021/10/26 07:54:23;;;;;;;20.27;11.25;;;;;;;;;;5076934;28;20039;-76
2021/10/26 07:56:49;;;;;;;14.65;9.48;;;;;;;;;;5093370;28;20035;-75
2021/10/26 07:59:14;;;;;;;16.58;9.45;;;;;;;;;;5093952;28;20035;-76
2021/10/26 08:01:41;;;;;;;14.27;9.65;;;;;;;;;;5092726;28;20031;-77
2021/10/26 08:04:26;;;;;;;12.57;9.48;;;;;;;;;;5095439;28;20109;-77
2021/10/26 08:07:15;;;;;;;14.80;9.38;;;;;;;;;;5094278;28;20036;-75
2021/10/26 08:09:50;;;;;;;13.25;7.90;;;;;;;;;;5093641;28;20115;-75
2021/10/26 08:12:17;;;;;;;18.52;12.27;;;;;;;;;;5093208;28;20117;-73
2021/10/26 08:14:42;;;;;;;18.70;12.68;;;;;;;;;;5094830;28;20039;-74
2021/10/26 08:17:08;;;;;;;18.50;13.38;;;;;;;;;;5093502;28;20036;-74
2021/10/26 08:19:35;;;;;;;18.75;13.35;;;;;;;;;;5093544;28;20032;-76
2021/10/26 08:22:06;;;;;;;22.67;14.65;;;;;;;;;;5093341;28;20043;-74
2021/10/26 08:24:34;;;;;;;20.13;13.18;;;;;;;;;;5091380;28;20039;-74
2021/10/26 08:27:03;;;;;;;19.85;13.52;;;;;;;;;;5076642;28;20031;-75
2021/10/26 08:29:35;;;;;;;21.90;13.45;;;;;;;;;;5093374;28;20075;-75
2021/10/26 08:35:31;;;;;;;23.00;14.18;;;;;;;;;;5093304;28;20039;-74
2021/10/26 08:37:31;;;;;;;17.17;12.75;;;;;;;;;;5085507;28;20068;-75
2021/10/26 08:40:04;;;;;;;14.82;10.07;;;;;;;;;;5091938;28;20090;-75
2021/10/26 08:42:30;;;;;;;10.30;8.25;;;;;;;;;;5093067;28;20028;-75
2021/10/26 08:44:57;;;;;;;10.02;7.00;;;;;;;;;;5093214;28;20028;-75
2021/10/26 08:47:22;;;;;;;8.32;5.60;;;;;;;;;;5093256;28;20085;-75
2021/10/26 08:50:20;;;;;;;11.30;6.28;;;;;;;;;;5081148;28;20040;-75
2021/10/26 08:52:49;;;;;;;13.30;7.28;;;;;;;;;;5092740;28;20048;-75
2021/10/26 08:55:37;;;;;;;10.30;6.90;;;;;;;;;;5094007;28;20040;-75
2021/10/26 08:58:24;;;;;;;10.38;6.60;;;;;;;;;;5094271;28;20039;-75
2021/10/26 09:00:51;;;;;;;10.68;6.75;;;;;;;;;;5092868;28;20048;-75
2021/10/26 09:03:21;;;;;;;10.90;6.45;;;;;;;;;;5092772;28;20036;-75
2021/10/26 09:05:49;;;;;;;7.13;5.63;;;;;;;;;;5094029;28;20549;-75
2021/10/26 09:08:22;;;;;;;7.88;5.88;;;;;;;;;;5091701;28;20043;-75
2021/10/26 09:10:50;;;;;;;11.70;6.28;;;;;;;;;;5092529;28;20024;-75
2021/10/26 09:16:50;;;;;;;8.90;5.18;;;;;;;;;;5092596;28;19920;-75
2021/10/26 09:19:42;;;;;;;6.65;4.15;;;;;;;;;;5094177;28;20117;-76
2021/10/26 09:22:26;;;;;;;6.90;3.95;;;;;;;;;;5092440;28;20036;-75
2021/10/26 09:25:05;;;;;;;7.28;4.75;;;;;;;;;;5092003;28;20028;-78
2021/10/26 09:27:31;;;;;;;6.70;4.60;;;;;;;;;;5092292;28;20032;-75
2021/10/26 09:30:01;;;;;;;6.75;4.40;;;;;;;;;;5093203;28;20036;-76
2021/10/26 09:32:39;;;;;;;6.80;4.10;;;;;;;;;;5093495;28;20093;-77
2021/10/26 09:35:14;;;;;;;14.43;4.53;;;;;;;;;;5093652;28;20028;-77
2021/10/26 09:37:46;;;;;;;7.55;4.07;;;;;;;;;;5092620;28;20085;-77
2021/10/26 09:40:13;;;;;;;5.57;3.85;;;;;;;;;;5079417;28;20394;-76
2021/10/26 09:42:52;;;;;;;6.90;4.15;;;;;;;;;;5113009;28;20044;-77
2021/10/26 09:45:23;;;;;;;7.63;4.15;;;;;;;;;;5113160;28;20036;-77
2021/10/26 09:47:52;;;;;;;5.35;3.45;;;;;;;;;;5113595;28;20051;-77
2021/10/26 09:50:28;;;;;;;6.90;3.80;;;;;;;;;;5080947;28;20017;-77
2021/10/26 09:53:06;;;;;;;7.55;3.55;;;;;;;;;;5078143;28;20075;-77
2021/10/26 09:55:41;;;;;;;9.70;3.88;;;;;;;;;;5089331;28;20036;-77
2021/10/26 09:58:13;;;;;;;;;;;;;;;;;;5082350;28;20036;-78
2021/10/26 10:00:42;;;;;;;5.22;3.30;;;;;;;;;;5088359;28;20361;-78
2021/10/26 10:03:15;;;;;;;6.28;3.42;;;;;;;;;;5097412;28;20032;-77
2021/10/26 10:05:52;;;;;;;5.93;3.85;;;;;;;;;;5078540;28;20037;-76
2021/10/26 10:08:30;;;;;;;5.30;3.22;;;;;;;;;;5077066;28;20032;-75
2021/10/26 10:11:07;;;;;;;7.47;3.72;;;;;;;;;;5084041;28;20089;-74
2021/10/26 10:13:47;;;;;;;9.27;3.30;;;;;;;;;;5096984;28;20055;-76
2021/10/26 10:16:16;;;;;;;7.78;3.30;;;;;;;;;;5096842;28;20028;-74
2021/10/26 10:18:46;;;;;;;13.43;3.80;;;;;;;;;;5096810;28;20501;-73
2021/10/26 10:21:15;;;;;;;10.32;3.30;;;;;;;;;;5097108;28;20042;-76
2021/10/26 10:23:45;;;;;;;6.05;3.30;;;;;;;;;;5096933;28;20454;-77
2021/10/26 10:26:13;;;;;;;9.68;3.28;;;;;;;;;;5096743;28;20068;-77
2021/10/26 10:28:44;;;;;;;13.18;3.58;;;;;;;;;;5096849;28;20043;-76
2021/10/26 10:31:14;;;;;;;6.13;3.08;;;;;;;;;;5097064;28;20032;-74
2021/10/26 10:33:43;;;;;;;9.38;3.25;;;;;;;;;;5096905;28;20466;-75
2021/10/26 10:36:09;;;;;;;8.18;3.45;;;;;;;;;;5097559;28;20040;-75
2021/10/26 10:38:36;;;;;;;5.90;3.28;;;;;;;;;;5099041;28;20051;-78
2021/10/26 10:41:20;;;;;;;5.32;3.05;;;;;;;;;;5099927;28;20085;-82
2021/10/26 10:43:45;;;;;;;5.93;2.55;;;;;;;;;;5109160;28;20039;-78
2021/10/26 10:46:51;;;;;;;4.50;2.67;;;;;;;;;;5115867;28;20484;-79
2021/10/26 10:49:22;;;;;;;7.40;2.83;;;;;;;;;;5118143;28;20135;-79
2021/10/26 10:51:58;;;;;;;8.20;2.80;;;;;;;;;;5121459;28;20476;-80
2021/10/26 10:54:53;;;;;;;4.05;2.63;;;;;;;;;;5119147;28;20027;-78
2021/10/26 10:57:33;;;;;;;5.78;2.40;;;;;;;;;;5118965;28;20156;-79
2021/10/26 11:00:17;;;;;;;4.03;2.15;;;;;;;;;;5119867;28;20052;-81
2021/10/26 11:02:42;;;;;;;8.48;2.67;;;;;;;;;;5121771;28;20039;-77
2021/10/26 11:05:35;;;;;;;5.32;2.30;;;;;;;;;;5117076;27;20126;-78
2021/10/26 11:08:08;;;;;;;7.50;2.72;;;;;;;;;;5116520;28;20065;-76
2021/10/26 11:10:48;;;;;;;6.00;2.30;;;;;;;;;;5088881;28;20051;-77
2021/10/26 11:13:25;;;;;;;5.32;2.10;;;;;;;;;;5080216;28;20040;-76
2021/10/26 11:15:53;;;;;;;13.55;2.72;;;;;;;;;;5096100;28;20036;-75
2021/10/26 11:18:38;;;;;;;5.82;2.15;;;;;;;;;;5095825;28;20043;-75
2021/10/26 11:21:06;;;;;;;8.80;2.13;;;;;;;;;;5095820;28;20440;-76
2021/10/26 11:23:41;;;;;;;6.85;1.85;;;;;;;;;;5095311;28;20046;-76
2021/10/26 11:26:12;;;;;;;4.17;2.20;;;;;;;;;;5095898;28;20493;-76
2021/10/26 11:28:40;;;;;;;7.65;2.28;;;;;;;;;;5095466;28;20538;-76
2021/10/26 11:31:11;;;;;;;9.07;2.22;;;;;;;;;;5094034;28;20060;-76
2021/10/26 11:33:40;;;;;;;5.30;2.17;;;;;;;;;;5094514;28;20063;-76
2021/10/26 11:36:07;;;;;;;5.15;2.28;;;;;;;;;;5095755;28;20036;-76
2021/10/26 11:38:38;;;;;;;6.47;2.13;;;;;;;;;;5095308;28;20118;-76
2021/10/26 11:41:14;;;;;;;7.15;2.15;;;;;;;;;;5095517;28;20043;-76
2021/10/26 11:44:00;;;;;;;5.40;2.53;;;;;;;;;;5092450;28;20036;-76
2021/10/26 11:46:29;;;;;;;7.03;2.42;;;;;;;;;;5095548;28;20119;-76
2021/10/26 11:48:59;;;;;;;4.65;2.38;;;;;;;;;;5095412;28;20114;-76
2021/10/26 11:51:42;;;;;;;5.53;2.10;;;;;;;;;;5095435;28;20082;-76
2021/10/26 11:54:33;;;;;;;6.60;2.00;;;;;;;;;;5095066;28;20116;-76
2021/10/26 11:57:04;;;;;;;6.18;2.17;;;;;;;;;;5089137;28;20090;-76
2021/10/26 11:59:40;;;;;;;7.28;2.30;;;;;;;;;;5093759;28;20428;-76
2021/10/26 12:02:20;;;;;;;7.35;2.95;;;;;;;;;;5094972;28;20040;-76
2021/10/26 12:04:55;;;;;;;5.97;2.30;;;;;;;;;;5093854;28;20036;-74
2021/10/26 12:07:23;;;;;;;6.55;2.53;;;;;;;;;;5093569;28;20036;-76
2021/10/26 12:09:52;;;;;;;5.80;2.50;;;;;;;;;;5094872;28;20032;-76
2021/10/26 12:12:23;;;;;;;11.10;2.40;;;;;;;;;;5095006;28;20094;-76
2021/10/26 12:14:55;;;;;;;8.18;2.40;;;;;;;;;;5093581;28;20036;-76
2021/10/26 12:17:35;;;;;;;6.07;2.00;;;;;;;;;;5094437;28;20492;-76
2021/10/26 12:20:22;;;;;;;8.50;2.30;;;;;;;;;;5093590;28;20118;-76
2021/10/26 12:22:59;;;;;;;7.88;2.38;;;;;;;;;;5093587;28;20453;-76
2021/10/26 12:25:28;;;;;;;3.80;1.58;;;;;;;;;;5093181;28;20043;-76
2021/10/26 12:27:56;;;;;;;6.75;2.22;;;;;;;;;;5093176;28;20058;-76
2021/10/26 12:30:33;;;;;;;4.57;1.77;;;;;;;;;;5094573;28;20032;-76
2021/10/26 12:33:22;;;;;;;4.82;1.77;;;;;;;;;;5093208;28;20066;-75
2021/10/26 12:35:55;;;;;;;9.70;2.00;;;;;;;;;;5094522;28;20119;-76
2021/10/26 12:38:41;;;;;;;5.32;1.75;;;;;;;;;;5093352;28;20028;-76
2021/10/26 12:41:15;;;;;;;78.53;47.88;;;;;;;;;;5092880;28;20042;-76
2021/10/26 12:43:57;;;;;;;9.20;5.20;;;;;;;;;;5076263;28;20036;-75
2021/10/26 12:46:25;;;;;;;4.90;2.42;;;;;;;;;;5092982;28;20039;-76
2021/10/26 12:49:02;;;;;;;5.15;1.77;;;;;;;;;;5094279;28;20027;-75
2021/10/26 12:51:29;;;;;;;5.93;2.42;;;;;;;;;;5094138;28;20115;-75
2021/10/26 12:53:55;;;;;;;5.78;2.50;;;;;;;;;;5092927;28;20127;-77
2021/10/26 12:56:24;;;;;;;10.70;2.60;;;;;;;;;;5094200;28;20119;-75
2021/10/26 12:58:51;;;;;;;4.35;2.70;;;;;;;;;;5093952;28;20032;-75
2021/10/26 13:01:37;;;;;;;9.43;3.45;;;;;;;;;;5093698;28;20028;-76
2021/10/26 13:04:16;;;;;;;5.80;2.25;;;;;;;;;;5092586;28;20040;-76
2021/10/26 13:07:14;;;;;;;8.65;2.50;;;;;;;;;;5093030;28;20040;-77
2021/10/26 13:10:00;;;;;;;5.93;1.90;;;;;;;;;;5088373;28;20509;-77
2021/10/26 13:12:30;;;;;;;12.35;2.20;;;;;;;;;;5093527;28;20102;-77
2021/10/26 13:15:01;;;;;;;4.43;1.90;;;;;;;;;;5093306;28;20043;-77
2021/10/26 13:17:38;;;;;;;4.30;2.17;;;;;;;;;;5093729;28;20493;-76
2021/10/26 13:20:13;;;;;;;4.88;2.10;;;;;;;;;;5093862;28;20032;-76
2021/10/26 13:22:53;;;;;;;9.50;3.00;;;;;;;;;;5091876;28;20047;-77
2021/10/26 13:25:18;;;;;;;8.85;2.67;;;;;;;;;;5092975;28;20039;-77
2021/10/26 13:27:45;;;;;;;6.63;2.47;;;;;;;;;;5093689;28;20401;-77
2021/10/26 13:30:12;;;;;;;7.53;2.08;;;;;;;;;;5093429;28;20035;-77
2021/10/26 13:32:37;;;;;;;5.45;2.13;;;;;;;;;;5093559;28;20046;-77
2021/10/26 13:35:04;;;;;;;4.03;1.85;;;;;;;;;;5093649;28;20031;-77
2021/10/26 13:37:30;;;;;;;6.78;2.25;;;;;;;;;;5093211;28;20079;-76
2021/10/26 13:39:55;;;;;;;5.40;2.40;;;;;;;;;;5093183;28;20438;-77
2021/10/26 13:42:20;;;;;;;8.25;2.33;;;;;;;;;;5095925;28;20441;-76
2021/10/26 13:44:46;;;;;;;5.22;2.45;;;;;;;;;;5113891;28;20123;-77
2021/10/26 13:47:11;;;;;;;6.43;2.63;;;;;;;;;;5112700;28;20046;-77
2021/10/26 13:49:38;;;;;;;7.20;2.47;;;;;;;;;;5093119;28;20024;-76
2021/10/26 13:52:04;;;;;;;6.47;2.55;;;;;;;;;;5093306;28;20036;-77
2021/10/26 13:54:30;;;;;;;8.35;2.13;;;;;;;;;;5093413;28;20031;-76
2021/10/26 13:56:56;;;;;;;7.00;2.28;;;;;;;;;;5093307;28;20082;-77
2021/10/26 13:59:21;;;;;;;8.88;2.30;;;;;;;;;;5093348;28;20032;-77
2021/10/26 14:01:47;;;;;;;4.60;2.20;;;;;;;;;;5093321;28;20067;-77
2021/10/26 14:04:16;;;;;;;7.35;2.40;;;;;;;;;;5092945;28;20032;-77
2021/10/26 14:06:45;;;;;;;6.20;2.35;;;;;;;;;;5093243;28;20122;-77
2021/10/26 14:09:12;;;;;;;6.03;2.67;;;;;;;;;;5092234;28;20039;-77
2021/10/26 14:11:38;;;;;;;5.82;2.40;;;;;;;;;;5093001;28;20111;-77
2021/10/26 14:14:06;;;;;;;10.05;2.53;;;;;;;;;;5093318;28;20509;-77
2021/10/26 14:16:32;;;;;;;5.18;2.53;;;;;;;;;;5093296;28;20051;-77
2021/10/26 14:18:58;;;;;;;9.65;2.20;;;;;;;;;;5072740;28;20043;-77
2021/10/26 14:21:24;;;;;;;6.65;2.63;;;;;;;;;;5072974;28;20032;-77
2021/10/26 14:23:50;;;;;;;8.75;2.88;;;;;;;;;;5072859;28;20028;-77
2021/10/26 14:26:15;;;;;;;6.65;3.22;;;;;;;;;;5071745;28;20635;-77
2021/10/26 14:28:41;;;;;;;6.80;3.72;;;;;;;;;;5072998;28;20047;-77
2021/10/26 14:31:07;;;;;;;9.52;3.78;;;;;;;;;;5072985;28;20040;-77
2021/10/26 14:33:35;;;;;;;8.00;2.75;;;;;;;;;;5072581;28;20048;-77
2021/10/26 14:36:07;;;;;;;6.18;3.22;;;;;;;;;;5071649;28;20040;-77
2021/10/26 14:38:38;;;;;;;9.07;2.70;;;;;;;;;;5072766;28;20040;-77
2021/10/26 14:41:16;;;;;;;5.13;2.40;;;;;;;;;;5089190;28;20039;-77
2021/10/26 14:54:34;;;;;;;5.13;2.13;;;;;;;;;;5098784;28;20043;-77
2021/10/26 14:57:00;;;;;;;5.43;2.25;;;;;;;;;;5095393;28;20067;-77
2021/10/26 14:59:26;;;;;;;8.82;3.22;;;;;;;;;;5096296;28;20063;-77
2021/10/26 15:01:51;;;;;;;4.88;2.30;;;;;;;;;;5096109;28;20376;-77
2021/10/26 15:04:18;;;;;;;7.28;2.50;;;;;;;;;;5096447;28;20123;-77
2021/10/26 15:06:44;;;;;;;10.05;2.10;;;;;;;;;;5096491;28;20039;-77
2021/10/26 15:11:53;;;;;;;3.03;1.58;;;;;;;;;;5096172;28;20078;-77
2021/10/26 15:14:18;;;;;;;6.22;2.08;;;;;;;;;;5096041;28;20052;-77
2021/10/26 15:16:45;;;;;;;8.35;2.08;;;;;;;;;;5096159;28;20111;-76